首页
METAR-TAF:

METAR-TAF

机场 :

Wunstorf, 德国

纬度: 52-27N, 经度: 009-26E, 海拔: 57米

当前天气观测

该预报发布于22分钟前的05:20 UTC
风速15节,风向西转西南
温度 6°C
湿度 93%
气压 1009 hPa
能见度10公里或以上
多云层高于800英尺
多云层高于2200英尺

METAR: ETNW 190520Z 25015KT 9999 BKN008 BKN022 06/05 Q1009 GRN GRN TEMPO YLO

时间: 06:42 (05:42 UTC)

预报

该预报发布于6小时和37分钟前的23:05 UTC
预报有效从19日的 00点(UTC)到 19日的 24点(UTC)
风速12节,风向南转西南
能見度: 8000
散云层高于800英尺
多云层高于1500英尺
短暂存在
从 19日的 00点(UTC)到 19日的 09点(UTC)
风速15节,风向西南,有时为28节阵风
能見度: 3000
多云层高于500英尺
短暂存在
从 19日的 09点(UTC)到 19日的 11点(UTC)
风速15节,风向西南,有时为25节阵风
能見度: 6000
多云层高于1000英尺
成为
从 19日的 13点(UTC)到 19日的 15点(UTC)
风速8节,风向西南
能見度: 9000
散云层高于1200英尺
多云层高于2500英尺

TAF: ETNW 182305Z 1900/1924 21012KT 8000 NSW SCT008 BKN015 TEMPO 1900/1909 23015G28KT 3000 RA BKN005 TEMPO 1909/1911 22015G25KT 6000 NSW BKN010 BECMG 1913/1915 22008KT 9000 NSW SCT012 BKN025 BY ETGL

超过4000个机场的气象观测和天气预报(METAR&TAF报告)。

可查询的气象台以黄色和红色小点在地图上表示。

将鼠标移到小点上方,可查看气象台名称。

然后点击查看天气观测和预报。

如需切换地图:点击带黑十字的绿色按钮放大地图;点击带横线的绿色按钮缩小地图;或者点击绿色箭头查看邻近地区的地图。


METAR-TAF: